Terminal Aerodrome Forecast
Issued by NWS Mt. Holly, NJ

Home | Current Version | Previous Version | Text Only | Print | Product List | Glossary On
Versions: 1 2 3 4 5 6 7 8 9 10 11 12 13
000
FTUS41 KPHI 281137
TAFILG
TAF
KILG 281137Z 2812/2912 18003KT P6SM FEW120
     FM281400 20010KT P6SM FEW120
     FM281800 20010KT P6SM FEW050
     FM282200 19007KT P6SM SKC
      TEMPO 2909/2911 5SM BR=

USA.gov is the U.S. government's official web portal to all federal, state and local government web resources and services.